sensor_id;sensor_type;location;lat;lon;timestamp;P1;durP1;ratioP1;P2;durP2;ratioP2
51556;SDS011;38766;53.194;5.532;2023-05-10T00:00:20;3.13;;;2.25;;
51556;SDS011;38766;53.194;5.532;2023-05-10T00:02:47;3.03;;;2.80;;
51556;SDS011;38766;53.194;5.532;2023-05-10T00:05:13;3.17;;;2.90;;
51556;SDS011;38766;53.194;5.532;2023-05-10T00:07:39;4.18;;;3.80;;
51556;SDS011;38766;53.194;5.532;2023-05-10T00:10:05;8.65;;;6.50;;
51556;SDS011;38766;53.194;5.532;2023-05-10T00:12:31;13.38;;;10.23;;
51556;SDS011;38766;53.194;5.532;2023-05-10T00:14:57;17.90;;;13.40;;
51556;SDS011;38766;53.194;5.532;2023-05-10T00:17:22;14.50;;;11.73;;
51556;SDS011;38766;53.194;5.532;2023-05-10T00:19:48;17.75;;;14.13;;
51556;SDS011;38766;53.194;5.532;2023-05-10T00:22:14;19.90;;;15.50;;
51556;SDS011;38766;53.194;5.532;2023-05-10T00:24:39;20.50;;;16.30;;
51556;SDS011;38766;53.194;5.532;2023-05-10T00:27:05;23.45;;;17.23;;
51556;SDS011;38766;53.194;5.532;2023-05-10T00:29:30;17.50;;;15.57;;
51556;SDS011;38766;53.194;5.532;2023-05-10T00:31:56;19.92;;;16.58;;
51556;SDS011;38766;53.194;5.532;2023-05-10T00:34:22;19.90;;;15.90;;
51556;SDS011;38766;53.194;5.532;2023-05-10T00:36:48;20.17;;;15.98;;
51556;SDS011;38766;53.194;5.532;2023-05-10T00:39:13;18.15;;;14.30;;
51556;SDS011;38766;53.194;5.532;2023-05-10T00:41:39;19.52;;;15.20;;
51556;SDS011;38766;53.194;5.532;2023-05-10T00:44:05;18.67;;;15.73;;
51556;SDS011;38766;53.194;5.532;2023-05-10T00:46:31;18.90;;;15.93;;
51556;SDS011;38766;53.194;5.532;2023-05-10T00:48:57;23.33;;;16.70;;
51556;SDS011;38766;53.194;5.532;2023-05-10T00:51:22;23.30;;;18.50;;
51556;SDS011;38766;53.194;5.532;2023-05-10T00:53:49;24.10;;;18.80;;
51556;SDS011;38766;53.194;5.532;2023-05-10T00:56:16;29.25;;;20.38;;
51556;SDS011;38766;53.194;5.532;2023-05-10T00:58:41;30.17;;;20.25;;
51556;SDS011;38766;53.194;5.532;2023-05-10T01:01:07;32.88;;;20.33;;
51556;SDS011;38766;53.194;5.532;2023-05-10T01:03:34;36.08;;;19.13;;
51556;SDS011;38766;53.194;5.532;2023-05-10T01:06:00;43.60;;;19.02;;
51556;SDS011;38766;53.194;5.532;2023-05-10T01:08:26;44.45;;;17.45;;
51556;SDS011;38766;53.194;5.532;2023-05-10T01:10:53;39.05;;;19.45;;
51556;SDS011;38766;53.194;5.532;2023-05-10T01:13:30;43.97;;;20.23;;
51556;SDS011;38766;53.194;5.532;2023-05-10T01:16:01;47.22;;;21.52;;
51556;SDS011;38766;53.194;5.532;2023-05-10T01:18:30;34.85;;;21.85;;
51556;SDS011;38766;53.194;5.532;2023-05-10T01:23:52;31.73;;;21.42;;
51556;SDS011;38766;53.194;5.532;2023-05-10T01:34:39;33.15;;;16.13;;
51556;SDS011;38766;53.194;5.532;2023-05-10T01:42:51;27.15;;;16.83;;
51556;SDS011;38766;53.194;5.532;2023-05-10T01:45:39;25.37;;;17.00;;
51556;SDS011;38766;53.194;5.532;2023-05-10T01:48:12;21.58;;;16.05;;
51556;SDS011;38766;53.194;5.532;2023-05-10T01:50:41;19.15;;;13.85;;
51556;SDS011;38766;53.194;5.532;2023-05-10T01:53:11;16.65;;;13.38;;
51556;SDS011;38766;53.194;5.532;2023-05-10T01:55:39;19.02;;;15.00;;
51556;SDS011;38766;53.194;5.532;2023-05-10T01:58:11;18.08;;;13.02;;
51556;SDS011;38766;53.194;5.532;2023-05-10T02:00:40;15.52;;;12.93;;
51556;SDS011;38766;53.194;5.532;2023-05-10T02:03:09;11.77;;;10.15;;
51556;SDS011;38766;53.194;5.532;2023-05-10T02:05:36;14.88;;;11.75;;
51556;SDS011;38766;53.194;5.532;2023-05-10T02:08:05;13.98;;;10.60;;
51556;SDS011;38766;53.194;5.532;2023-05-10T02:10:32;10.57;;;9.48;;
51556;SDS011;38766;53.194;5.532;2023-05-10T02:12:59;8.15;;;7.25;;
51556;SDS011;38766;53.194;5.532;2023-05-10T02:15:26;10.55;;;7.88;;
51556;SDS011;38766;53.194;5.532;2023-05-10T02:17:54;8.50;;;7.63;;
51556;SDS011;38766;53.194;5.532;2023-05-10T02:20:21;7.45;;;6.75;;
51556;SDS011;38766;53.194;5.532;2023-05-10T02:22:49;6.45;;;4.50;;
51556;SDS011;38766;53.194;5.532;2023-05-10T02:25:17;5.70;;;4.40;;
51556;SDS011;38766;53.194;5.532;2023-05-10T02:27:44;6.47;;;4.40;;
51556;SDS011;38766;53.194;5.532;2023-05-10T02:30:11;4.43;;;4.03;;
51556;SDS011;38766;53.194;5.532;2023-05-10T02:32:37;4.78;;;4.15;;
51556;SDS011;38766;53.194;5.532;2023-05-10T02:35:04;5.00;;;3.85;;
51556;SDS011;38766;53.194;5.532;2023-05-10T02:37:31;4.82;;;3.65;;
51556;SDS011;38766;53.194;5.532;2023-05-10T02:39:58;3.80;;;3.50;;
51556;SDS011;38766;53.194;5.532;2023-05-10T02:42:27;3.20;;;2.90;;
51556;SDS011;38766;53.194;5.532;2023-05-10T02:45:02;2.50;;;2.30;;
51556;SDS011;38766;53.194;5.532;2023-05-10T02:47:35;2.03;;;1.92;;
51556;SDS011;38766;53.194;5.532;2023-05-10T02:50:01;2.17;;;1.98;;
51556;SDS011;38766;53.194;5.532;2023-05-10T02:52:29;2.08;;;1.92;;
51556;SDS011;38766;53.194;5.532;2023-05-10T02:55:01;2.22;;;2.03;;
51556;SDS011;38766;53.194;5.532;2023-05-10T02:57:31;1.95;;;1.85;;
51556;SDS011;38766;53.194;5.532;2023-05-10T02:59:58;2.50;;;2.10;;
51556;SDS011;38766;53.194;5.532;2023-05-10T03:02:25;3.70;;;2.28;;
51556;SDS011;38766;53.194;5.532;2023-05-10T03:04:51;3.20;;;2.15;;
51556;SDS011;38766;53.194;5.532;2023-05-10T03:07:17;2.10;;;1.90;;
51556;SDS011;38766;53.194;5.532;2023-05-10T03:09:46;2.97;;;2.45;;
51556;SDS011;38766;53.194;5.532;2023-05-10T03:15:07;3.10;;;2.20;;
51556;SDS011;38766;53.194;5.532;2023-05-10T03:17:49;2.92;;;2.67;;
51556;SDS011;38766;53.194;5.532;2023-05-10T03:20:25;2.63;;;2.40;;
51556;SDS011;38766;53.194;5.532;2023-05-10T03:23:04;3.50;;;2.60;;
51556;SDS011;38766;53.194;5.532;2023-05-10T03:25:37;3.40;;;3.00;;
51556;SDS011;38766;53.194;5.532;2023-05-10T03:28:03;4.05;;;3.22;;
51556;SDS011;38766;53.194;5.532;2023-05-10T03:30:30;3.08;;;2.50;;
51556;SDS011;38766;53.194;5.532;2023-05-10T03:32:56;2.92;;;2.10;;
51556;SDS011;38766;53.194;5.532;2023-05-10T03:35:22;2.20;;;2.00;;
51556;SDS011;38766;53.194;5.532;2023-05-10T03:37:49;2.83;;;2.13;;
51556;SDS011;38766;53.194;5.532;2023-05-10T03:40:14;2.00;;;1.85;;
51556;SDS011;38766;53.194;5.532;2023-05-10T03:42:40;1.85;;;1.75;;
51556;SDS011;38766;53.194;5.532;2023-05-10T03:45:06;2.00;;;1.90;;
51556;SDS011;38766;53.194;5.532;2023-05-10T03:47:33;2.05;;;1.85;;
51556;SDS011;38766;53.194;5.532;2023-05-10T03:49:58;2.10;;;1.75;;
51556;SDS011;38766;53.194;5.532;2023-05-10T03:52:24;2.20;;;2.00;;
51556;SDS011;38766;53.194;5.532;2023-05-10T03:54:50;2.75;;;2.03;;
51556;SDS011;38766;53.194;5.532;2023-05-10T03:57:15;3.28;;;2.60;;
51556;SDS011;38766;53.194;5.532;2023-05-10T03:59:41;2.95;;;2.20;;
51556;SDS011;38766;53.194;5.532;2023-05-10T04:02:07;2.72;;;2.35;;
51556;SDS011;38766;53.194;5.532;2023-05-10T04:04:32;2.63;;;2.42;;
51556;SDS011;38766;53.194;5.532;2023-05-10T04:06:58;4.22;;;2.90;;
51556;SDS011;38766;53.194;5.532;2023-05-10T04:09:23;3.13;;;2.83;;
51556;SDS011;38766;53.194;5.532;2023-05-10T04:11:49;3.65;;;3.35;;
51556;SDS011;38766;53.194;5.532;2023-05-10T04:14:15;5.45;;;3.67;;
51556;SDS011;38766;53.194;5.532;2023-05-10T04:16:41;5.82;;;4.45;;
51556;SDS011;38766;53.194;5.532;2023-05-10T04:19:07;5.57;;;4.60;;
51556;SDS011;38766;53.194;5.532;2023-05-10T04:21:32;6.07;;;4.57;;
51556;SDS011;38766;53.194;5.532;2023-05-10T04:23:58;6.85;;;5.35;;
51556;SDS011;38766;53.194;5.532;2023-05-10T04:26:23;6.05;;;5.22;;
51556;SDS011;38766;53.194;5.532;2023-05-10T04:28:50;6.43;;;5.47;;
51556;SDS011;38766;53.194;5.532;2023-05-10T04:31:16;6.90;;;4.82;;
51556;SDS011;38766;53.194;5.532;2023-05-10T04:33:42;8.77;;;5.15;;
51556;SDS011;38766;53.194;5.532;2023-05-10T04:36:07;8.75;;;5.60;;
51556;SDS011;38766;53.194;5.532;2023-05-10T04:38:33;6.97;;;5.10;;
51556;SDS011;38766;53.194;5.532;2023-05-10T04:41:09;8.27;;;4.88;;
51556;SDS011;38766;53.194;5.532;2023-05-10T04:43:35;7.60;;;4.90;;
51556;SDS011;38766;53.194;5.532;2023-05-10T04:46:02;7.20;;;5.47;;
51556;SDS011;38766;53.194;5.532;2023-05-10T04:48:28;7.15;;;6.22;;
51556;SDS011;38766;53.194;5.532;2023-05-10T04:50:53;7.78;;;6.80;;
51556;SDS011;38766;53.194;5.532;2023-05-10T04:53:19;8.52;;;7.35;;
51556;SDS011;38766;53.194;5.532;2023-05-10T04:55:45;8.73;;;6.80;;
51556;SDS011;38766;53.194;5.532;2023-05-10T04:58:11;8.70;;;6.85;;
51556;SDS011;38766;53.194;5.532;2023-05-10T05:00:37;8.15;;;6.40;;
51556;SDS011;38766;53.194;5.532;2023-05-10T05:03:03;10.15;;;5.82;;
51556;SDS011;38766;53.194;5.532;2023-05-10T05:05:28;7.35;;;5.80;;
51556;SDS011;38766;53.194;5.532;2023-05-10T05:07:54;6.55;;;5.50;;
51556;SDS011;38766;53.194;5.532;2023-05-10T05:10:19;4.90;;;4.20;;
51556;SDS011;38766;53.194;5.532;2023-05-10T05:12:45;5.60;;;4.30;;
51556;SDS011;38766;53.194;5.532;2023-05-10T05:15:17;4.97;;;3.95;;
51556;SDS011;38766;53.194;5.532;2023-05-10T05:17:42;4.78;;;3.63;;
51556;SDS011;38766;53.194;5.532;2023-05-10T05:20:08;5.57;;;3.85;;
51556;SDS011;38766;53.194;5.532;2023-05-10T05:22:38;6.68;;;3.95;;
51556;SDS011;38766;53.194;5.532;2023-05-10T05:25:04;7.90;;;5.07;;
51556;SDS011;38766;53.194;5.532;2023-05-10T05:27:31;6.18;;;4.50;;
51556;SDS011;38766;53.194;5.532;2023-05-10T05:29:57;6.90;;;4.97;;
51556;SDS011;38766;53.194;5.532;2023-05-10T05:32:23;6.65;;;4.80;;
51556;SDS011;38766;53.194;5.532;2023-05-10T05:34:49;8.02;;;5.70;;
51556;SDS011;38766;53.194;5.532;2023-05-10T05:37:16;7.95;;;5.40;;
51556;SDS011;38766;53.194;5.532;2023-05-10T05:39:43;10.10;;;4.97;;
51556;SDS011;38766;53.194;5.532;2023-05-10T05:42:10;8.32;;;4.93;;
51556;SDS011;38766;53.194;5.532;2023-05-10T05:44:37;7.63;;;4.53;;
51556;SDS011;38766;53.194;5.532;2023-05-10T05:47:03;8.90;;;5.07;;
51556;SDS011;38766;53.194;5.532;2023-05-10T05:49:29;8.52;;;4.40;;
51556;SDS011;38766;53.194;5.532;2023-05-10T05:51:58;10.27;;;4.22;;
51556;SDS011;38766;53.194;5.532;2023-05-10T05:54:27;11.43;;;3.63;;
51556;SDS011;38766;53.194;5.532;2023-05-10T05:56:56;7.80;;;3.50;;
51556;SDS011;38766;53.194;5.532;2023-05-10T05:59:23;6.13;;;3.45;;
51556;SDS011;38766;53.194;5.532;2023-05-10T06:01:49;7.97;;;3.42;;
51556;SDS011;38766;53.194;5.532;2023-05-10T06:04:14;6.70;;;3.33;;
51556;SDS011;38766;53.194;5.532;2023-05-10T06:06:41;10.48;;;3.17;;
51556;SDS011;38766;53.194;5.532;2023-05-10T06:09:07;5.63;;;3.25;;
51556;SDS011;38766;53.194;5.532;2023-05-10T06:11:33;8.70;;;3.35;;
51556;SDS011;38766;53.194;5.532;2023-05-10T06:13:59;6.95;;;3.10;;
51556;SDS011;38766;53.194;5.532;2023-05-10T06:16:25;5.78;;;2.70;;
51556;SDS011;38766;53.194;5.532;2023-05-10T06:18:51;7.78;;;2.95;;
51556;SDS011;38766;53.194;5.532;2023-05-10T06:21:17;5.05;;;2.58;;
51556;SDS011;38766;53.194;5.532;2023-05-10T06:23:42;5.80;;;3.10;;
51556;SDS011;38766;53.194;5.532;2023-05-10T06:26:08;7.32;;;3.72;;
51556;SDS011;38766;53.194;5.532;2023-05-10T06:28:34;8.60;;;3.47;;
51556;SDS011;38766;53.194;5.532;2023-05-10T06:31:02;5.97;;;3.55;;
51556;SDS011;38766;53.194;5.532;2023-05-10T06:33:28;6.70;;;3.78;;
51556;SDS011;38766;53.194;5.532;2023-05-10T06:35:54;7.40;;;3.80;;
51556;SDS011;38766;53.194;5.532;2023-05-10T06:38:20;9.23;;;3.67;;
51556;SDS011;38766;53.194;5.532;2023-05-10T06:40:45;6.97;;;4.30;;
51556;SDS011;38766;53.194;5.532;2023-05-10T06:43:11;7.65;;;4.68;;
51556;SDS011;38766;53.194;5.532;2023-05-10T06:45:37;9.10;;;4.47;;
51556;SDS011;38766;53.194;5.532;2023-05-10T06:48:02;7.00;;;5.10;;
51556;SDS011;38766;53.194;5.532;2023-05-10T06:50:28;6.65;;;4.80;;
51556;SDS011;38766;53.194;5.532;2023-05-10T06:52:54;7.60;;;4.63;;
51556;SDS011;38766;53.194;5.532;2023-05-10T06:55:20;11.40;;;4.85;;
51556;SDS011;38766;53.194;5.532;2023-05-10T06:57:46;9.18;;;4.90;;
51556;SDS011;38766;53.194;5.532;2023-05-10T07:00:12;9.15;;;5.05;;
51556;SDS011;38766;53.194;5.532;2023-05-10T07:02:39;7.25;;;4.85;;
51556;SDS011;38766;53.194;5.532;2023-05-10T07:05:04;8.10;;;4.47;;
51556;SDS011;38766;53.194;5.532;2023-05-10T07:07:32;7.47;;;4.97;;
51556;SDS011;38766;53.194;5.532;2023-05-10T07:09:57;6.75;;;4.40;;
51556;SDS011;38766;53.194;5.532;2023-05-10T07:12:23;9.90;;;4.70;;
51556;SDS011;38766;53.194;5.532;2023-05-10T07:14:49;5.15;;;4.32;;
51556;SDS011;38766;53.194;5.532;2023-05-10T07:17:15;6.30;;;5.00;;
51556;SDS011;38766;53.194;5.532;2023-05-10T07:19:40;7.07;;;4.80;;
51556;SDS011;38766;53.194;5.532;2023-05-10T07:22:06;7.32;;;4.60;;
51556;SDS011;38766;53.194;5.532;2023-05-10T07:24:32;4.80;;;3.90;;
51556;SDS011;38766;53.194;5.532;2023-05-10T07:26:59;5.70;;;4.60;;
51556;SDS011;38766;53.194;5.532;2023-05-10T07:29:24;6.95;;;5.10;;
51556;SDS011;38766;53.194;5.532;2023-05-10T07:31:50;7.50;;;4.70;;
51556;SDS011;38766;53.194;5.532;2023-05-10T07:34:16;5.05;;;4.35;;
51556;SDS011;38766;53.194;5.532;2023-05-10T07:36:42;5.80;;;4.07;;
51556;SDS011;38766;53.194;5.532;2023-05-10T07:39:07;4.65;;;3.35;;
51556;SDS011;38766;53.194;5.532;2023-05-10T07:41:33;4.10;;;3.20;;
51556;SDS011;38766;53.194;5.532;2023-05-10T07:43:59;5.07;;;3.53;;
51556;SDS011;38766;53.194;5.532;2023-05-10T07:46:25;4.90;;;4.10;;
51556;SDS011;38766;53.194;5.532;2023-05-10T07:48:50;5.78;;;4.28;;
51556;SDS011;38766;53.194;5.532;2023-05-10T07:51:16;6.88;;;4.50;;
51556;SDS011;38766;53.194;5.532;2023-05-10T07:53:41;6.47;;;4.80;;
51556;SDS011;38766;53.194;5.532;2023-05-10T07:56:29;6.85;;;4.70;;
51556;SDS011;38766;53.194;5.532;2023-05-10T07:58:57;7.82;;;5.40;;
51556;SDS011;38766;53.194;5.532;2023-05-10T08:01:24;7.88;;;5.75;;
51556;SDS011;38766;53.194;5.532;2023-05-10T08:03:51;8.60;;;5.80;;
51556;SDS011;38766;53.194;5.532;2023-05-10T08:06:18;9.93;;;6.75;;
51556;SDS011;38766;53.194;5.532;2023-05-10T08:08:45;8.23;;;5.93;;
51556;SDS011;38766;53.194;5.532;2023-05-10T08:11:15;8.48;;;5.50;;
51556;SDS011;38766;53.194;5.532;2023-05-10T08:13:41;7.47;;;5.45;;
51556;SDS011;38766;53.194;5.532;2023-05-10T08:16:07;9.85;;;6.05;;
51556;SDS011;38766;53.194;5.532;2023-05-10T08:18:32;9.73;;;7.53;;
51556;SDS011;38766;53.194;5.532;2023-05-10T08:20:58;15.40;;;10.50;;
51556;SDS011;38766;53.194;5.532;2023-05-10T08:23:23;18.15;;;13.13;;
51556;SDS011;38766;53.194;5.532;2023-05-10T08:25:49;12.05;;;7.53;;
51556;SDS011;38766;53.194;5.532;2023-05-10T08:28:15;10.15;;;7.50;;
51556;SDS011;38766;53.194;5.532;2023-05-10T08:30:40;12.82;;;7.68;;
51556;SDS011;38766;53.194;5.532;2023-05-10T08:33:06;11.23;;;8.07;;
51556;SDS011;38766;53.194;5.532;2023-05-10T08:35:31;9.40;;;6.68;;
51556;SDS011;38766;53.194;5.532;2023-05-10T08:37:58;10.05;;;6.72;;
51556;SDS011;38766;53.194;5.532;2023-05-10T08:40:23;10.07;;;6.75;;
51556;SDS011;38766;53.194;5.532;2023-05-10T08:42:53;9.07;;;6.60;;
51556;SDS011;38766;53.194;5.532;2023-05-10T08:45:23;8.20;;;5.90;;
51556;SDS011;38766;53.194;5.532;2023-05-10T08:47:51;9.05;;;6.70;;
51556;SDS011;38766;53.194;5.532;2023-05-10T08:50:18;7.75;;;6.03;;
51556;SDS011;38766;53.194;5.532;2023-05-10T08:52:46;9.68;;;6.90;;
51556;SDS011;38766;53.194;5.532;2023-05-10T08:55:15;9.13;;;6.85;;
51556;SDS011;38766;53.194;5.532;2023-05-10T08:57:41;12.23;;;6.95;;
51556;SDS011;38766;53.194;5.532;2023-05-10T09:00:07;8.30;;;6.22;;
51556;SDS011;38766;53.194;5.532;2023-05-10T09:02:34;7.20;;;5.47;;
51556;SDS011;38766;53.194;5.532;2023-05-10T09:05:01;7.43;;;5.68;;
51556;SDS011;38766;53.194;5.532;2023-05-10T09:07:29;7.63;;;5.85;;
51556;SDS011;38766;53.194;5.532;2023-05-10T09:09:55;9.13;;;6.40;;
51556;SDS011;38766;53.194;5.532;2023-05-10T09:12:22;10.70;;;7.43;;
51556;SDS011;38766;53.194;5.532;2023-05-10T09:14:48;11.35;;;7.93;;
51556;SDS011;38766;53.194;5.532;2023-05-10T09:17:16;13.40;;;8.77;;
51556;SDS011;38766;53.194;5.532;2023-05-10T09:19:42;13.52;;;9.45;;
51556;SDS011;38766;53.194;5.532;2023-05-10T09:22:09;12.25;;;8.40;;
51556;SDS011;38766;53.194;5.532;2023-05-10T09:24:35;11.57;;;9.02;;
51556;SDS011;38766;53.194;5.532;2023-05-10T09:27:01;12.52;;;8.73;;
51556;SDS011;38766;53.194;5.532;2023-05-10T09:29:38;10.88;;;7.72;;
51556;SDS011;38766;53.194;5.532;2023-05-10T09:32:07;10.57;;;8.00;;
51556;SDS011;38766;53.194;5.532;2023-05-10T09:34:33;11.68;;;8.43;;
51556;SDS011;38766;53.194;5.532;2023-05-10T09:37:01;14.05;;;10.10;;
51556;SDS011;38766;53.194;5.532;2023-05-10T09:39:35;15.15;;;11.48;;
51556;SDS011;38766;53.194;5.532;2023-05-10T09:42:09;14.48;;;10.48;;
51556;SDS011;38766;53.194;5.532;2023-05-10T09:44:35;17.15;;;12.82;;
51556;SDS011;38766;53.194;5.532;2023-05-10T09:47:02;16.63;;;12.70;;
51556;SDS011;38766;53.194;5.532;2023-05-10T09:49:28;15.10;;;10.50;;
51556;SDS011;38766;53.194;5.532;2023-05-10T09:51:59;13.15;;;10.07;;
51556;SDS011;38766;53.194;5.532;2023-05-10T09:54:32;16.58;;;12.63;;
51556;SDS011;38766;53.194;5.532;2023-05-10T09:56:59;16.15;;;12.00;;
51556;SDS011;38766;53.194;5.532;2023-05-10T09:59:26;16.00;;;11.30;;
51556;SDS011;38766;53.194;5.532;2023-05-10T10:01:55;15.40;;;11.43;;
51556;SDS011;38766;53.194;5.532;2023-05-10T10:04:22;17.20;;;11.43;;
51556;SDS011;38766;53.194;5.532;2023-05-10T10:07:02;19.27;;;12.43;;
51556;SDS011;38766;53.194;5.532;2023-05-10T10:09:29;15.13;;;11.27;;
51556;SDS011;38766;53.194;5.532;2023-05-10T10:11:54;14.60;;;10.65;;
51556;SDS011;38766;53.194;5.532;2023-05-10T10:14:22;16.65;;;12.30;;
51556;SDS011;38766;53.194;5.532;2023-05-10T10:16:49;15.35;;;11.60;;
51556;SDS011;38766;53.194;5.532;2023-05-10T10:19:16;17.02;;;11.10;;
51556;SDS011;38766;53.194;5.532;2023-05-10T10:21:43;15.35;;;10.98;;
51556;SDS011;38766;53.194;5.532;2023-05-10T10:24:09;13.05;;;9.65;;
51556;SDS011;38766;53.194;5.532;2023-05-10T10:26:35;11.27;;;9.27;;
51556;SDS011;38766;53.194;5.532;2023-05-10T10:32:10;9.85;;;8.20;;
51556;SDS011;38766;53.194;5.532;2023-05-10T10:34:46;10.60;;;8.57;;
51556;SDS011;38766;53.194;5.532;2023-05-10T10:37:12;9.60;;;8.02;;
51556;SDS011;38766;53.194;5.532;2023-05-10T10:39:38;8.45;;;7.03;;
51556;SDS011;38766;53.194;5.532;2023-05-10T10:42:04;11.95;;;7.85;;
51556;SDS011;38766;53.194;5.532;2023-05-10T10:54:57;11.93;;;9.90;;
51556;SDS011;38766;53.194;5.532;2023-05-10T10:57:25;12.35;;;8.98;;
51556;SDS011;38766;53.194;5.532;2023-05-10T11:00:17;10.32;;;8.60;;
51556;SDS011;38766;53.194;5.532;2023-05-10T11:03:03;12.13;;;10.10;;
51556;SDS011;38766;53.194;5.532;2023-05-10T11:08:28;10.27;;;8.43;;
51556;SDS011;38766;53.194;5.532;2023-05-10T11:18:57;12.82;;;9.85;;
51556;SDS011;38766;53.194;5.532;2023-05-10T11:21:27;13.35;;;9.80;;
51556;SDS011;38766;53.194;5.532;2023-05-10T11:23:54;15.32;;;11.00;;
51556;SDS011;38766;53.194;5.532;2023-05-10T11:26:25;17.15;;;11.55;;
51556;SDS011;38766;53.194;5.532;2023-05-10T11:28:59;16.98;;;13.00;;
51556;SDS011;38766;53.194;5.532;2023-05-10T11:31:27;18.75;;;12.75;;
51556;SDS011;38766;53.194;5.532;2023-05-10T11:33:54;17.30;;;12.50;;
51556;SDS011;38766;53.194;5.532;2023-05-10T11:36:23;19.83;;;13.25;;
51556;SDS011;38766;53.194;5.532;2023-05-10T11:38:54;16.35;;;13.05;;
51556;SDS011;38766;53.194;5.532;2023-05-10T11:41:22;18.20;;;13.40;;
51556;SDS011;38766;53.194;5.532;2023-05-10T11:43:52;16.95;;;13.25;;
51556;SDS011;38766;53.194;5.532;2023-05-10T11:46:19;15.98;;;13.15;;
51556;SDS011;38766;53.194;5.532;2023-05-10T11:48:49;16.92;;;12.45;;
51556;SDS011;38766;53.194;5.532;2023-05-10T11:51:19;15.70;;;11.73;;
51556;SDS011;38766;53.194;5.532;2023-05-10T11:53:49;18.00;;;12.93;;
51556;SDS011;38766;53.194;5.532;2023-05-10T11:56:19;20.05;;;13.52;;
51556;SDS011;38766;53.194;5.532;2023-05-10T11:58:51;21.50;;;14.73;;
51556;SDS011;38766;53.194;5.532;2023-05-10T12:01:21;23.02;;;16.15;;
51556;SDS011;38766;53.194;5.532;2023-05-10T12:03:49;20.73;;;15.30;;
51556;SDS011;38766;53.194;5.532;2023-05-10T12:06:17;23.83;;;15.82;;
51556;SDS011;38766;53.194;5.532;2023-05-10T12:08:47;21.60;;;15.05;;
51556;SDS011;38766;53.194;5.532;2023-05-10T12:11:17;21.77;;;14.40;;
51556;SDS011;38766;53.194;5.532;2023-05-10T12:13:43;21.83;;;14.90;;
51556;SDS011;38766;53.194;5.532;2023-05-10T12:16:15;18.35;;;13.45;;
51556;SDS011;38766;53.194;5.532;2023-05-10T12:18:42;19.95;;;14.07;;
51556;SDS011;38766;53.194;5.532;2023-05-10T12:21:11;23.50;;;15.02;;
51556;SDS011;38766;53.194;5.532;2023-05-10T12:23:40;22.67;;;15.07;;
51556;SDS011;38766;53.194;5.532;2023-05-10T12:26:06;24.40;;;16.27;;
51556;SDS011;38766;53.194;5.532;2023-05-10T12:28:34;21.33;;;15.55;;
51556;SDS011;38766;53.194;5.532;2023-05-10T12:31:00;20.95;;;15.55;;
51556;SDS011;38766;53.194;5.532;2023-05-10T12:33:27;20.63;;;14.10;;
51556;SDS011;38766;53.194;5.532;2023-05-10T12:36:06;20.55;;;14.35;;
51556;SDS011;38766;53.194;5.532;2023-05-10T12:38:33;21.63;;;14.95;;
51556;SDS011;38766;53.194;5.532;2023-05-10T12:41:04;19.75;;;14.57;;
51556;SDS011;38766;53.194;5.532;2023-05-10T12:43:34;23.33;;;14.07;;
51556;SDS011;38766;53.194;5.532;2023-05-10T12:46:10;20.02;;;13.90;;
51556;SDS011;38766;53.194;5.532;2023-05-10T12:48:37;15.50;;;12.25;;
51556;SDS011;38766;53.194;5.532;2023-05-10T12:51:04;15.32;;;11.00;;
51556;SDS011;38766;53.194;5.532;2023-05-10T12:53:30;12.05;;;10.80;;
51556;SDS011;38766;53.194;5.532;2023-05-10T12:55:56;13.27;;;9.57;;
51556;SDS011;38766;53.194;5.532;2023-05-10T12:58:22;12.07;;;9.13;;
51556;SDS011;38766;53.194;5.532;2023-05-10T13:00:48;9.20;;;8.30;;
51556;SDS011;38766;53.194;5.532;2023-05-10T13:03:14;10.10;;;7.93;;
51556;SDS011;38766;53.194;5.532;2023-05-10T13:05:40;10.05;;;8.23;;
51556;SDS011;38766;53.194;5.532;2023-05-10T13:08:06;8.45;;;7.65;;
51556;SDS011;38766;53.194;5.532;2023-05-10T13:10:32;7.78;;;6.95;;
51556;SDS011;38766;53.194;5.532;2023-05-10T13:12:57;9.20;;;7.50;;
51556;SDS011;38766;53.194;5.532;2023-05-10T13:15:24;8.88;;;7.63;;
51556;SDS011;38766;53.194;5.532;2023-05-10T13:17:50;7.82;;;6.63;;
51556;SDS011;38766;53.194;5.532;2023-05-10T13:20:16;8.02;;;7.30;;
51556;SDS011;38766;53.194;5.532;2023-05-10T13:22:45;7.40;;;6.70;;
51556;SDS011;38766;53.194;5.532;2023-05-10T13:25:11;8.45;;;7.55;;
51556;SDS011;38766;53.194;5.532;2023-05-10T13:27:37;7.70;;;6.90;;
51556;SDS011;38766;53.194;5.532;2023-05-10T13:30:06;7.05;;;6.35;;
51556;SDS011;38766;53.194;5.532;2023-05-10T13:32:33;6.95;;;6.35;;
51556;SDS011;38766;53.194;5.532;2023-05-10T13:34:59;6.70;;;6.10;;
51556;SDS011;38766;53.194;5.532;2023-05-10T13:37:25;6.75;;;6.00;;
51556;SDS011;38766;53.194;5.532;2023-05-10T13:39:50;6.55;;;5.95;;
51556;SDS011;38766;53.194;5.532;2023-05-10T13:42:16;7.30;;;6.60;;
51556;SDS011;38766;53.194;5.532;2023-05-10T13:44:42;7.25;;;6.55;;
51556;SDS011;38766;53.194;5.532;2023-05-10T13:47:08;7.28;;;6.57;;
51556;SDS011;38766;53.194;5.532;2023-05-10T13:49:34;8.60;;;6.90;;
51556;SDS011;38766;53.194;5.532;2023-05-10T13:51:59;8.43;;;7.63;;
51556;SDS011;38766;53.194;5.532;2023-05-10T13:54:32;8.55;;;7.75;;
51556;SDS011;38766;53.194;5.532;2023-05-10T13:57:01;8.95;;;8.05;;
51556;SDS011;38766;53.194;5.532;2023-05-10T13:59:28;9.98;;;8.98;;
51556;SDS011;38766;53.194;5.532;2023-05-10T14:01:54;9.70;;;8.80;;
51556;SDS011;38766;53.194;5.532;2023-05-10T14:04:20;7.70;;;6.40;;
51556;SDS011;38766;53.194;5.532;2023-05-10T14:06:45;5.63;;;5.13;;
51556;SDS011;38766;53.194;5.532;2023-05-10T14:09:11;9.63;;;7.63;;
51556;SDS011;38766;53.194;5.532;2023-05-10T14:11:37;7.32;;;6.63;;
51556;SDS011;38766;53.194;5.532;2023-05-10T14:14:06;6.95;;;6.22;;
51556;SDS011;38766;53.194;5.532;2023-05-10T14:16:32;7.10;;;6.40;;
51556;SDS011;38766;53.194;5.532;2023-05-10T14:18:58;7.45;;;6.68;;
51556;SDS011;38766;53.194;5.532;2023-05-10T14:21:23;7.70;;;6.90;;
51556;SDS011;38766;53.194;5.532;2023-05-10T14:23:49;8.40;;;6.38;;
51556;SDS011;38766;53.194;5.532;2023-05-10T14:26:15;7.57;;;6.35;;
51556;SDS011;38766;53.194;5.532;2023-05-10T14:28:41;7.20;;;6.50;;
51556;SDS011;38766;53.194;5.532;2023-05-10T14:31:06;7.43;;;6.68;;
51556;SDS011;38766;53.194;5.532;2023-05-10T14:33:32;8.82;;;7.93;;
51556;SDS011;38766;53.194;5.532;2023-05-10T14:35:57;10.88;;;8.38;;
51556;SDS011;38766;53.194;5.532;2023-05-10T14:38:24;10.07;;;8.32;;
51556;SDS011;38766;53.194;5.532;2023-05-10T14:40:51;8.35;;;7.47;;
51556;SDS011;38766;53.194;5.532;2023-05-10T14:43:19;8.77;;;7.88;;
51556;SDS011;38766;53.194;5.532;2023-05-10T14:45:45;9.55;;;8.57;;
51556;SDS011;38766;53.194;5.532;2023-05-10T14:48:11;9.88;;;8.00;;
51556;SDS011;38766;53.194;5.532;2023-05-10T14:50:40;10.77;;;8.38;;
51556;SDS011;38766;53.194;5.532;2023-05-10T14:53:06;8.70;;;7.78;;
51556;SDS011;38766;53.194;5.532;2023-05-10T14:55:32;8.48;;;7.00;;
51556;SDS011;38766;53.194;5.532;2023-05-10T14:57:57;8.93;;;7.07;;
51556;SDS011;38766;53.194;5.532;2023-05-10T15:00:23;9.60;;;7.90;;
51556;SDS011;38766;53.194;5.532;2023-05-10T15:02:49;10.48;;;7.93;;
51556;SDS011;38766;53.194;5.532;2023-05-10T15:05:14;8.55;;;7.65;;
51556;SDS011;38766;53.194;5.532;2023-05-10T15:07:40;8.73;;;7.80;;
51556;SDS011;38766;53.194;5.532;2023-05-10T15:10:08;9.30;;;7.85;;
51556;SDS011;38766;53.194;5.532;2023-05-10T15:12:34;6.68;;;6.00;;
51556;SDS011;38766;53.194;5.532;2023-05-10T15:15:00;6.88;;;6.18;;
51556;SDS011;38766;53.194;5.532;2023-05-10T15:17:25;7.05;;;6.13;;
51556;SDS011;38766;53.194;5.532;2023-05-10T15:19:51;7.78;;;6.97;;
51556;SDS011;38766;53.194;5.532;2023-05-10T15:22:17;8.25;;;7.38;;